createdAt,value
2018-09-04T00:04:11.645Z,100155.10
2018-09-04T00:09:15.238Z,100149.63
2018-09-04T00:14:18.747Z,100145.75
2018-09-04T00:19:22.306Z,100145.65
2018-09-04T00:24:25.788Z,100133.73
2018-09-04T00:29:29.238Z,100129.91
2018-09-04T00:34:32.840Z,100136.04
2018-09-04T00:39:36.305Z,100132.23
2018-09-04T00:44:39.733Z,100130.92
2018-09-04T00:49:43.233Z,100135.89
2018-09-04T00:54:46.687Z,100132.03
2018-09-04T00:59:50.208Z,100132.17
2018-09-04T01:04:53.712Z,100132.70
2018-09-04T01:09:57.295Z,100132.84
2018-09-04T01:15:00.952Z,100131.72
2018-09-04T01:20:05.261Z,100130.62
2018-09-04T01:25:08.758Z,100137.48
2018-09-04T01:30:12.289Z,100125.77
2018-09-04T01:35:15.848Z,100128.59
2018-09-04T01:40:19.320Z,100132.83
2018-09-04T01:45:22.798Z,100130.52
2018-09-04T01:50:26.250Z,100121.42
2018-09-04T01:56:32.597Z,100121.27
2018-09-04T02:01:36.846Z,100126.45
2018-09-04T02:06:40.393Z,100126.37
2018-09-04T02:11:43.939Z,100129.30
2018-09-04T02:16:47.509Z,100132.43
2018-09-04T02:21:51.421Z,100135.84
2018-09-04T02:26:54.968Z,100139.34
2018-09-04T02:31:58.533Z,100131.61
2018-09-04T02:37:02.072Z,100129.22
2018-09-04T02:42:06.160Z,100149.05
2018-09-04T02:47:09.685Z,100142.34
2018-09-04T02:52:13.116Z,100143.27
2018-09-04T02:57:16.569Z,100150.91
2018-09-04T03:02:20.039Z,100159.70
2018-09-04T03:07:23.585Z,100161.17
2018-09-04T03:12:27.129Z,100162.45
2018-09-04T03:17:30.706Z,100160.14
2018-09-04T03:22:34.230Z,100157.74
2018-09-04T03:27:37.744Z,100158.80
2018-09-04T03:32:41.256Z,100170.48
2018-09-04T03:37:44.815Z,100172.87
2018-09-04T03:42:48.372Z,100172.79
2018-09-04T03:47:51.914Z,100164.98
2018-09-04T03:52:55.453Z,100169.24
2018-09-04T03:57:59.029Z,100180.38
2018-09-04T04:03:02.486Z,100172.08
2018-09-04T04:08:05.961Z,100172.08
2018-09-04T04:13:09.545Z,100173.77
2018-09-04T04:18:13.131Z,100174.37
2018-09-04T04:23:16.685Z,100172.00
2018-09-04T04:28:20.175Z,100183.47
2018-09-04T04:33:23.762Z,100182.33
2018-09-04T04:38:27.294Z,100182.91
2018-09-04T04:43:30.806Z,100173.66
2018-09-04T04:48:34.317Z,100177.81
2018-09-04T04:53:37.870Z,100181.59
2018-09-04T04:58:41.349Z,100184.09
2018-09-04T05:03:44.812Z,100189.55
2018-09-04T05:08:48.277Z,100198.83
2018-09-04T05:13:51.851Z,100202.09
2018-09-04T05:18:55.318Z,100199.14
2018-09-04T05:23:58.917Z,100203.14
2018-09-04T05:29:02.407Z,100200.89
2018-09-04T05:34:05.888Z,100210.47
2018-09-04T05:39:10.325Z,100221.99
2018-09-04T05:44:13.857Z,100218.67
2018-09-04T05:49:19.701Z,100222.44
2018-09-04T05:54:23.193Z,100218.74
2018-09-04T05:59:26.786Z,100223.03
2018-09-04T06:04:30.282Z,100233.53
2018-09-04T06:09:33.822Z,100232.12
2018-09-04T06:14:37.374Z,100233.58
2018-09-04T06:19:40.796Z,100233.53
2018-09-04T06:24:44.286Z,100240.89
2018-09-04T06:29:47.795Z,100238.73
2018-09-04T06:34:51.333Z,100235.80
2018-09-04T06:39:55.011Z,100229.53
2018-09-04T06:44:58.500Z,100232.41
2018-09-04T06:50:02.309Z,100237.69
2018-09-04T06:55:06.039Z,100236.85
2018-09-04T07:00:12.137Z,100244.53
2018-09-04T07:05:15.696Z,100249.80
2018-09-04T07:10:19.256Z,100257.93
2018-09-04T07:15:22.792Z,100265.14
2018-09-04T07:20:26.321Z,100257.37
2018-09-04T07:25:29.789Z,100259.45
2018-09-04T07:30:33.277Z,100271.28
2018-09-04T07:35:36.808Z,100269.42
2018-09-04T07:40:40.522Z,100264.59
2018-09-04T07:45:44.049Z,100262.45
2018-09-04T07:50:47.646Z,100256.77
2018-09-04T07:55:51.184Z,100254.52
2018-09-04T08:00:54.746Z,100258.29
2018-09-04T08:05:58.219Z,100254.21
2018-09-04T08:11:01.809Z,100260.30
2018-09-04T08:16:05.646Z,100254.92
2018-09-04T08:21:09.348Z,100250.32
2018-09-04T08:26:12.950Z,100249.38
2018-09-04T08:31:16.462Z,100238.67
2018-09-04T08:36:19.961Z,100239.88
2018-09-04T08:41:23.469Z,100237.78
2018-09-04T08:46:26.955Z,100230.98
2018-09-04T08:51:30.415Z,100230.02
2018-09-04T08:56:33.901Z,100223.45
2018-09-04T09:01:37.385Z,100220.98
2018-09-04T09:06:40.829Z,100220.33
2018-09-04T09:11:44.350Z,100217.61
2018-09-04T09:16:47.908Z,100214.40
2018-09-04T09:21:51.325Z,100213.66
2018-09-04T09:26:54.943Z,100214.80
2018-09-04T09:31:58.455Z,100217.32
2018-09-04T09:37:01.965Z,100215.79
2018-09-04T09:42:05.425Z,100213.11
2018-09-04T09:47:08.930Z,100209.05
2018-09-04T09:52:12.483Z,100212.06
2018-09-04T09:57:16.014Z,100215.09
2018-09-04T10:02:22.089Z,100204.27
2018-09-04T10:07:25.663Z,100194.56
2018-09-04T10:12:29.090Z,100193.73
2018-09-04T10:17:32.500Z,100195.93
2018-09-04T10:22:35.948Z,100197.80
2018-09-04T10:27:39.478Z,100188.75
2018-09-04T10:32:54.015Z,100194.13
2018-09-04T10:37:57.521Z,100195.66
2018-09-04T10:43:00.966Z,100198.74
2018-09-04T10:48:04.531Z,100190.27
2018-09-04T10:53:08.060Z,100182.27
2018-09-04T10:58:11.524Z,100181.16
2018-09-04T11:03:14.987Z,100186.84
2018-09-04T11:08:18.996Z,100179.92
2018-09-04T11:13:22.607Z,100165.68
2018-09-04T11:18:26.065Z,100164.52
2018-09-04T11:23:29.776Z,100161.94
2018-09-04T11:28:35.185Z,100141.45
2018-09-04T11:33:39.077Z,100133.38
2018-09-04T11:38:42.587Z,100134.84
2018-09-04T11:43:46.137Z,100134.31
2018-09-04T11:48:49.682Z,100127.92
2018-09-04T11:53:53.138Z,100129.07
2018-09-04T11:58:56.635Z,100124.76
2018-09-04T12:04:00.112Z,100116.66
2018-09-04T12:09:03.820Z,100113.54
2018-09-04T12:14:07.247Z,100122.41
2018-09-04T12:19:10.741Z,100119.83
2018-09-04T12:24:14.179Z,100120.47
2018-09-04T12:29:17.658Z,100105.20
2018-09-04T12:34:21.230Z,100109.70
2018-09-04T12:39:24.701Z,100110.89
2018-09-04T12:44:28.365Z,100101.45
2018-09-04T12:49:31.769Z,100097.63
2018-09-04T12:54:35.378Z,100094.28
2018-09-04T12:59:38.922Z,100088.72
2018-09-04T13:04:42.377Z,100089.66
2018-09-04T13:09:45.851Z,100087.15
2018-09-04T13:14:49.486Z,100078.48
2018-09-04T13:19:53.040Z,100068.34
2018-09-04T13:24:56.535Z,100065.77
2018-09-04T13:30:00.213Z,100068.41
2018-09-04T13:35:03.861Z,100063.35
2018-09-04T13:40:07.937Z,100062.91
2018-09-04T13:45:11.433Z,100059.76
2018-09-04T13:50:14.965Z,100052.38
2018-09-04T13:55:18.399Z,100056.77
2018-09-04T14:00:22.864Z,100059.38
2018-09-04T14:05:26.397Z,100060.63
2018-09-04T14:10:29.868Z,100063.27
2018-09-04T14:15:33.388Z,100062.36
2018-09-04T14:20:43.584Z,100058.17
2018-09-04T14:25:47.025Z,100052.59
2018-09-04T14:30:50.588Z,100055.85
2018-09-04T14:35:54.084Z,100053.59
2018-09-04T14:40:57.614Z,100053.55
2018-09-04T14:46:01.149Z,100059.40
2018-09-04T14:51:04.593Z,100052.09
2018-09-04T14:56:08.094Z,100060.84
2018-09-04T15:01:11.571Z,100054.02
2018-09-04T15:06:15.121Z,100064.38
2018-09-04T15:11:18.621Z,100061.74
2018-09-04T15:16:22.141Z,100068.48
2018-09-04T15:21:29.881Z,100063.27
2018-09-04T15:26:33.324Z,100068.63
2018-09-04T15:31:36.944Z,100065.33
2018-09-04T15:36:40.364Z,100070.97
2018-09-04T15:41:43.841Z,100062.70
2018-09-04T15:46:47.373Z,100059.64
2018-09-04T15:51:50.837Z,100063.97
2018-09-04T15:56:54.423Z,100060.66
2018-09-04T16:01:57.811Z,100060.84
2018-09-04T16:07:01.297Z,100065.02
2018-09-04T16:12:04.797Z,100058.36
2018-09-04T16:17:08.361Z,100064.70
2018-09-04T16:22:11.834Z,100064.14
2018-09-04T16:27:15.873Z,100063.24
2018-09-04T16:32:19.350Z,100058.02
2018-09-04T16:37:22.855Z,100068.16
2018-09-04T16:42:26.448Z,100075.41
2018-09-04T16:47:30.481Z,100074.69
2018-09-04T16:52:33.926Z,100069.32
2018-09-04T16:57:37.410Z,100079.47
2018-09-04T17:02:40.950Z,100082.06
2018-09-04T17:07:44.533Z,100089.54
2018-09-04T17:12:48.011Z,100088.42
2018-09-04T17:17:51.585Z,100088.28
2018-09-04T17:22:55.368Z,100088.92
2018-09-04T17:27:59.130Z,100095.56
2018-09-04T17:33:02.966Z,100096.73
2018-09-04T17:38:06.532Z,100101.94
2018-09-04T17:43:13.426Z,100109.67
2018-09-04T17:48:17.038Z,100108.66
2018-09-04T17:53:23.967Z,100110.36
2018-09-04T17:58:28.118Z,100121.56
2018-09-04T18:03:32.494Z,100123.52
2018-09-04T18:08:36.251Z,100137.91
2018-09-04T18:13:39.834Z,100144.16
2018-09-04T18:18:43.365Z,100150.95
2018-09-04T18:23:46.966Z,100158.52
2018-09-04T18:28:50.912Z,100172.01
2018-09-04T18:33:54.442Z,100173.32
2018-09-04T18:38:58.025Z,100174.11
2018-09-04T18:44:01.573Z,100185.47
2018-09-04T18:49:06.390Z,100187.56
2018-09-04T18:54:11.065Z,100191.56
2018-09-04T18:59:14.549Z,100195.03
2018-09-04T19:04:19.282Z,100203.62
2018-09-04T19:09:25.086Z,100209.65
2018-09-04T19:14:29.490Z,100208.80
2018-09-04T19:19:35.049Z,100208.17
2018-09-04T19:24:40.106Z,100222.80
2018-09-04T19:29:43.940Z,100223.04
2018-09-04T19:34:49.789Z,100223.84
2018-09-04T19:39:54.467Z,100229.37
2018-09-04T19:45:00.225Z,100231.20
2018-09-04T19:50:04.268Z,100240.74
2018-09-04T19:55:10.416Z,100246.28
2018-09-04T20:00:15.255Z,100249.20
2018-09-04T20:05:20.440Z,100250.81
2018-09-04T20:10:24.818Z,100253.93
2018-09-04T20:15:29.367Z,100265.39
2018-09-04T20:20:33.656Z,100263.81
2018-09-04T20:25:38.803Z,100265.80
2018-09-04T20:30:42.311Z,100260.86
2018-09-04T20:35:47.293Z,100261.59
2018-09-04T20:40:50.828Z,100266.25
2018-09-04T20:45:54.373Z,100267.87
2018-09-04T20:50:57.891Z,100267.42
2018-09-04T20:56:01.452Z,100274.80
2018-09-04T21:01:16.276Z,100272.41
2018-09-04T21:06:31.262Z,100273.81
2018-09-04T21:11:34.838Z,100283.83
2018-09-04T21:16:38.391Z,100290.64
2018-09-04T21:21:41.996Z,100296.82
2018-09-04T21:26:45.509Z,100301.59
2018-09-04T21:31:49.243Z,100300.72
2018-09-04T21:36:53.080Z,100291.80
2018-09-04T21:41:56.622Z,100294.59
2018-09-04T21:47:00.546Z,100293.75
2018-09-04T21:52:04.258Z,100295.91
2018-09-04T21:57:07.805Z,100297.20
2018-09-04T22:02:11.345Z,100302.75
2018-09-04T22:07:15.020Z,100299.80
2018-09-04T22:12:18.652Z,100308.29
2018-09-04T22:17:22.300Z,100313.08
2018-09-04T22:22:25.892Z,100317.41
2018-09-04T22:27:29.368Z,100321.98
2018-09-04T22:32:33.097Z,100321.29
2018-09-04T22:37:36.689Z,100320.00
2018-09-04T22:42:40.418Z,100320.59
2018-09-04T22:47:44.285Z,100323.19
2018-09-04T22:52:47.773Z,100329.28
2018-09-04T22:57:51.401Z,100334.73
2018-09-04T23:02:54.873Z,100336.89
2018-09-04T23:07:58.745Z,100332.28
2018-09-04T23:13:02.242Z,100336.98
2018-09-04T23:18:05.752Z,100331.19
2018-09-04T23:23:09.199Z,100338.13
2018-09-04T23:28:12.640Z,100339.59
2018-09-04T23:33:52.231Z,100334.47
2018-09-04T23:38:55.814Z,100331.25
2018-09-04T23:43:59.392Z,100326.11
2018-09-04T23:49:02.870Z,100325.74
2018-09-04T23:54:06.433Z,100321.18
2018-09-04T23:59:10.022Z,100324.08
